Terminal Aerodrome Forecast
Issued by NWS

Home | Current Version | Previous Version | Text Only | Print | Product List | Glossary On
Versions: 1 2 3 4 5 6 7 8 9 10 11 12 13 14 15 16 17 18 19 20 21 22 23 24 25 26 27 28 29 30 31 32 33 34 35 36 37
000
FTUS45 KBOU 252008 AAC
TAFAPA
TAF AMD
KAPA 252008Z 2520/2618 05013KT P6SM SCT070 BKN110 BKN220
     FM252100 05014G22KT P6SM VCSH SCT050 BKN070 BKN110
      TEMPO 2521/2601 -SHRA BKN050 OVC070
     FM260100 02018G28KT P6SM -SHRA BKN030 OVC050
      TEMPO 2602/2604 1SM -SN BKN015 OVC030
     FM260400 03013KT P6SM SCT030 BKN150
     FM261100 VRB06KT P6SM VCFG FEW001 SCT200
     FM261600 09009KT P6SM SCT070=

USA.gov is the U.S. government's official web portal to all federal, state and local government web resources and services.